sensor_id;sensor_type;location;lat;lon;timestamp;P1;durP1;ratioP1;P2;durP2;ratioP2
3627;SDS011;1830;49.000;12.074;2022-08-05T00:01:59;6.72;;;3.97;;
3627;SDS011;1830;49.000;12.074;2022-08-05T00:04:26;30.15;;;4.97;;
3627;SDS011;1830;49.000;12.074;2022-08-05T00:06:54;8.90;;;4.15;;
3627;SDS011;1830;49.000;12.074;2022-08-05T00:09:21;9.90;;;4.40;;
3627;SDS011;1830;49.000;12.074;2022-08-05T00:11:48;7.63;;;4.88;;
3627;SDS011;1830;49.000;12.074;2022-08-05T00:14:15;8.60;;;5.07;;
3627;SDS011;1830;49.000;12.074;2022-08-05T00:16:42;6.82;;;4.90;;
3627;SDS011;1830;49.000;12.074;2022-08-05T00:19:09;4.85;;;4.35;;
3627;SDS011;1830;49.000;12.074;2022-08-05T00:21:36;10.35;;;5.15;;
3627;SDS011;1830;49.000;12.074;2022-08-05T00:24:05;7.38;;;4.97;;
3627;SDS011;1830;49.000;12.074;2022-08-05T00:26:32;8.35;;;5.00;;
3627;SDS011;1830;49.000;12.074;2022-08-05T00:28:59;6.05;;;4.57;;
3627;SDS011;1830;49.000;12.074;2022-08-05T00:31:26;8.57;;;5.18;;
3627;SDS011;1830;49.000;12.074;2022-08-05T00:33:52;9.18;;;4.80;;
3627;SDS011;1830;49.000;12.074;2022-08-05T00:36:19;11.70;;;5.15;;
3627;SDS011;1830;49.000;12.074;2022-08-05T00:38:48;8.50;;;4.60;;
3627;SDS011;1830;49.000;12.074;2022-08-05T00:41:25;6.25;;;4.30;;
3627;SDS011;1830;49.000;12.074;2022-08-05T00:43:53;8.32;;;5.03;;
3627;SDS011;1830;49.000;12.074;2022-08-05T00:46:20;8.10;;;4.80;;
3627;SDS011;1830;49.000;12.074;2022-08-05T00:48:47;8.38;;;5.10;;
3627;SDS011;1830;49.000;12.074;2022-08-05T00:51:13;15.02;;;4.88;;
3627;SDS011;1830;49.000;12.074;2022-08-05T00:53:40;8.05;;;5.13;;
3627;SDS011;1830;49.000;12.074;2022-08-05T00:56:07;14.68;;;5.45;;
3627;SDS011;1830;49.000;12.074;2022-08-05T00:58:36;11.60;;;4.90;;
3627;SDS011;1830;49.000;12.074;2022-08-05T01:01:03;8.13;;;4.70;;
3627;SDS011;1830;49.000;12.074;2022-08-05T01:03:30;7.90;;;4.93;;
3627;SDS011;1830;49.000;12.074;2022-08-05T01:05:56;11.05;;;5.18;;
3627;SDS011;1830;49.000;12.074;2022-08-05T01:08:23;8.20;;;5.00;;
3627;SDS011;1830;49.000;12.074;2022-08-05T01:10:51;11.38;;;5.60;;
3627;SDS011;1830;49.000;12.074;2022-08-05T01:13:22;13.25;;;5.40;;
3627;SDS011;1830;49.000;12.074;2022-08-05T01:15:57;14.23;;;4.95;;
3627;SDS011;1830;49.000;12.074;2022-08-05T01:18:30;7.45;;;5.45;;
3627;SDS011;1830;49.000;12.074;2022-08-05T01:21:06;7.07;;;4.78;;
3627;SDS011;1830;49.000;12.074;2022-08-05T01:23:40;9.60;;;5.53;;
3627;SDS011;1830;49.000;12.074;2022-08-05T01:26:28;7.32;;;5.30;;
3627;SDS011;1830;49.000;12.074;2022-08-05T01:29:04;5.22;;;4.70;;
3627;SDS011;1830;49.000;12.074;2022-08-05T01:31:36;12.43;;;4.65;;
3627;SDS011;1830;49.000;12.074;2022-08-05T01:34:08;6.75;;;5.07;;
3627;SDS011;1830;49.000;12.074;2022-08-05T01:36:43;6.20;;;4.88;;
3627;SDS011;1830;49.000;12.074;2022-08-05T01:39:15;10.27;;;5.18;;
3627;SDS011;1830;49.000;12.074;2022-08-05T01:41:43;8.32;;;4.95;;
3627;SDS011;1830;49.000;12.074;2022-08-05T01:44:14;9.40;;;5.80;;
3627;SDS011;1830;49.000;12.074;2022-08-05T01:46:41;7.60;;;4.90;;
3627;SDS011;1830;49.000;12.074;2022-08-05T01:49:10;8.80;;;5.60;;
3627;SDS011;1830;49.000;12.074;2022-08-05T01:51:41;10.40;;;5.43;;
3627;SDS011;1830;49.000;12.074;2022-08-05T01:54:09;8.38;;;5.53;;
3627;SDS011;1830;49.000;12.074;2022-08-05T01:56:39;15.52;;;5.28;;
3627;SDS011;1830;49.000;12.074;2022-08-05T01:59:08;6.05;;;5.32;;
3627;SDS011;1830;49.000;12.074;2022-08-05T02:01:41;6.38;;;5.72;;
3627;SDS011;1830;49.000;12.074;2022-08-05T02:04:10;10.40;;;5.25;;
3627;SDS011;1830;49.000;12.074;2022-08-05T02:06:41;7.28;;;5.00;;
3627;SDS011;1830;49.000;12.074;2022-08-05T02:09:08;9.70;;;5.65;;
3627;SDS011;1830;49.000;12.074;2022-08-05T02:11:36;6.90;;;5.38;;
3627;SDS011;1830;49.000;12.074;2022-08-05T02:14:10;9.40;;;5.38;;
3627;SDS011;1830;49.000;12.074;2022-08-05T02:16:43;6.68;;;5.10;;
3627;SDS011;1830;49.000;12.074;2022-08-05T02:19:12;7.57;;;5.30;;
3627;SDS011;1830;49.000;12.074;2022-08-05T02:21:53;7.28;;;5.50;;
3627;SDS011;1830;49.000;12.074;2022-08-05T02:24:25;6.53;;;5.05;;
3627;SDS011;1830;49.000;12.074;2022-08-05T02:26:57;7.53;;;5.50;;
3627;SDS011;1830;49.000;12.074;2022-08-05T02:29:26;7.68;;;5.60;;
3627;SDS011;1830;49.000;12.074;2022-08-05T02:31:56;9.33;;;5.67;;
3627;SDS011;1830;49.000;12.074;2022-08-05T02:34:24;6.33;;;5.73;;
3627;SDS011;1830;49.000;12.074;2022-08-05T02:36:56;7.78;;;5.85;;
3627;SDS011;1830;49.000;12.074;2022-08-05T02:39:27;9.13;;;5.20;;
3627;SDS011;1830;49.000;12.074;2022-08-05T02:41:58;7.03;;;5.60;;
3627;SDS011;1830;49.000;12.074;2022-08-05T02:44:27;9.18;;;5.38;;
3627;SDS011;1830;49.000;12.074;2022-08-05T02:46:57;8.52;;;5.55;;
3627;SDS011;1830;49.000;12.074;2022-08-05T02:49:24;5.90;;;5.25;;
3627;SDS011;1830;49.000;12.074;2022-08-05T02:51:52;13.03;;;5.47;;
3627;SDS011;1830;49.000;12.074;2022-08-05T02:54:20;6.50;;;5.30;;
3627;SDS011;1830;49.000;12.074;2022-08-05T02:56:48;19.03;;;5.40;;
3627;SDS011;1830;49.000;12.074;2022-08-05T02:59:16;8.07;;;5.43;;
3627;SDS011;1830;49.000;12.074;2022-08-05T03:01:45;10.85;;;5.85;;
3627;SDS011;1830;49.000;12.074;2022-08-05T03:04:17;7.13;;;5.43;;
3627;SDS011;1830;49.000;12.074;2022-08-05T03:06:44;7.33;;;5.80;;
3627;SDS011;1830;49.000;12.074;2022-08-05T03:09:11;7.47;;;5.40;;
3627;SDS011;1830;49.000;12.074;2022-08-05T03:11:40;13.37;;;5.70;;
3627;SDS011;1830;49.000;12.074;2022-08-05T03:14:07;7.97;;;6.17;;
3627;SDS011;1830;49.000;12.074;2022-08-05T03:16:34;7.90;;;6.30;;
3627;SDS011;1830;49.000;12.074;2022-08-05T03:19:02;7.03;;;5.90;;
3627;SDS011;1830;49.000;12.074;2022-08-05T03:21:30;16.30;;;6.30;;
3627;SDS011;1830;49.000;12.074;2022-08-05T03:23:57;6.10;;;5.50;;
3627;SDS011;1830;49.000;12.074;2022-08-05T03:26:24;10.77;;;5.90;;
3627;SDS011;1830;49.000;12.074;2022-08-05T03:28:51;9.93;;;6.20;;
3627;SDS011;1830;49.000;12.074;2022-08-05T03:31:18;9.13;;;6.00;;
3627;SDS011;1830;49.000;12.074;2022-08-05T03:33:45;9.17;;;5.87;;
3627;SDS011;1830;49.000;12.074;2022-08-05T03:36:12;6.10;;;5.50;;
3627;SDS011;1830;49.000;12.074;2022-08-05T03:38:42;8.80;;;6.27;;
3627;SDS011;1830;49.000;12.074;2022-08-05T03:41:09;9.10;;;5.70;;
3627;SDS011;1830;49.000;12.074;2022-08-05T03:43:36;6.80;;;6.00;;
3627;SDS011;1830;49.000;12.074;2022-08-05T03:46:03;7.80;;;6.10;;
3627;SDS011;1830;49.000;12.074;2022-08-05T03:48:30;12.53;;;6.53;;
3627;SDS011;1830;49.000;12.074;2022-08-05T03:50:59;9.20;;;6.27;;
3627;SDS011;1830;49.000;12.074;2022-08-05T03:53:31;9.37;;;6.97;;
3627;SDS011;1830;49.000;12.074;2022-08-05T03:56:04;15.35;;;6.50;;
3627;SDS011;1830;49.000;12.074;2022-08-05T03:58:34;8.30;;;6.50;;
3627;SDS011;1830;49.000;12.074;2022-08-05T04:01:03;9.57;;;6.77;;
3627;SDS011;1830;49.000;12.074;2022-08-05T04:03:33;19.23;;;6.87;;
3627;SDS011;1830;49.000;12.074;2022-08-05T04:06:02;10.80;;;6.73;;
3627;SDS011;1830;49.000;12.074;2022-08-05T04:08:30;12.07;;;6.23;;
3627;SDS011;1830;49.000;12.074;2022-08-05T04:10:59;7.20;;;6.20;;
3627;SDS011;1830;49.000;12.074;2022-08-05T04:13:28;8.77;;;6.40;;
3627;SDS011;1830;49.000;12.074;2022-08-05T04:15:56;12.40;;;7.00;;
3627;SDS011;1830;49.000;12.074;2022-08-05T04:18:23;11.23;;;6.40;;
3627;SDS011;1830;49.000;12.074;2022-08-05T04:20:53;9.23;;;6.77;;
3627;SDS011;1830;49.000;12.074;2022-08-05T04:23:21;10.90;;;6.17;;
3627;SDS011;1830;49.000;12.074;2022-08-05T04:25:49;10.00;;;7.30;;
3627;SDS011;1830;49.000;12.074;2022-08-05T04:28:20;16.40;;;8.17;;
3627;SDS011;1830;49.000;12.074;2022-08-05T04:30:49;8.93;;;6.20;;
3627;SDS011;1830;49.000;12.074;2022-08-05T04:33:15;11.30;;;6.80;;
3627;SDS011;1830;49.000;12.074;2022-08-05T04:35:42;11.80;;;7.30;;
3627;SDS011;1830;49.000;12.074;2022-08-05T04:38:09;10.10;;;7.30;;
3627;SDS011;1830;49.000;12.074;2022-08-05T04:40:37;7.67;;;6.87;;
3627;SDS011;1830;49.000;12.074;2022-08-05T04:43:05;15.77;;;7.33;;
3627;SDS011;1830;49.000;12.074;2022-08-05T04:45:32;10.17;;;7.73;;
3627;SDS011;1830;49.000;12.074;2022-08-05T04:48:05;11.53;;;7.23;;
3627;SDS011;1830;49.000;12.074;2022-08-05T04:50:37;10.20;;;6.80;;
3627;SDS011;1830;49.000;12.074;2022-08-05T04:53:05;21.03;;;6.90;;
3627;SDS011;1830;49.000;12.074;2022-08-05T04:55:32;9.63;;;7.47;;
3627;SDS011;1830;49.000;12.074;2022-08-05T04:57:59;11.03;;;7.97;;
3627;SDS011;1830;49.000;12.074;2022-08-05T05:00:25;16.40;;;7.37;;
3627;SDS011;1830;49.000;12.074;2022-08-05T05:02:52;9.93;;;7.00;;
3627;SDS011;1830;49.000;12.074;2022-08-05T05:05:20;9.20;;;6.80;;
3627;SDS011;1830;49.000;12.074;2022-08-05T05:07:47;11.17;;;6.90;;
3627;SDS011;1830;49.000;12.074;2022-08-05T05:10:14;10.20;;;6.67;;
3627;SDS011;1830;49.000;12.074;2022-08-05T05:12:41;16.30;;;7.43;;
3627;SDS011;1830;49.000;12.074;2022-08-05T05:15:08;9.10;;;6.87;;
3627;SDS011;1830;49.000;12.074;2022-08-05T05:17:36;15.03;;;6.70;;
3627;SDS011;1830;49.000;12.074;2022-08-05T05:20:04;11.50;;;6.50;;
3627;SDS011;1830;49.000;12.074;2022-08-05T05:22:33;12.80;;;6.53;;
3627;SDS011;1830;49.000;12.074;2022-08-05T05:25:00;15.00;;;7.30;;
3627;SDS011;1830;49.000;12.074;2022-08-05T05:27:27;14.33;;;6.23;;
3627;SDS011;1830;49.000;12.074;2022-08-05T05:29:54;18.15;;;7.32;;
3627;SDS011;1830;49.000;12.074;2022-08-05T05:32:21;18.15;;;7.68;;
3627;SDS011;1830;49.000;12.074;2022-08-05T05:34:48;8.90;;;7.40;;
3627;SDS011;1830;49.000;12.074;2022-08-05T05:37:16;14.90;;;6.90;;
3627;SDS011;1830;49.000;12.074;2022-08-05T05:39:44;13.10;;;6.38;;
3627;SDS011;1830;49.000;12.074;2022-08-05T05:42:10;11.20;;;7.17;;
3627;SDS011;1830;49.000;12.074;2022-08-05T05:44:37;10.57;;;6.40;;
3627;SDS011;1830;49.000;12.074;2022-08-05T05:47:04;11.43;;;6.68;;
3627;SDS011;1830;49.000;12.074;2022-08-05T05:49:31;10.00;;;6.77;;
3627;SDS011;1830;49.000;12.074;2022-08-05T05:51:58;12.10;;;6.85;;
3627;SDS011;1830;49.000;12.074;2022-08-05T05:54:25;11.83;;;6.63;;
3627;SDS011;1830;49.000;12.074;2022-08-05T05:56:53;8.18;;;6.50;;
3627;SDS011;1830;49.000;12.074;2022-08-05T05:59:20;8.20;;;6.50;;
3627;SDS011;1830;49.000;12.074;2022-08-05T06:01:48;7.43;;;5.80;;
3627;SDS011;1830;49.000;12.074;2022-08-05T06:04:15;8.13;;;6.30;;
3627;SDS011;1830;49.000;12.074;2022-08-05T06:06:42;8.20;;;6.50;;
3627;SDS011;1830;49.000;12.074;2022-08-05T06:09:10;7.90;;;6.63;;
3627;SDS011;1830;49.000;12.074;2022-08-05T06:11:37;16.92;;;6.15;;
3627;SDS011;1830;49.000;12.074;2022-08-05T06:14:05;24.50;;;8.23;;
3627;SDS011;1830;49.000;12.074;2022-08-05T06:16:32;12.87;;;6.67;;
3627;SDS011;1830;49.000;12.074;2022-08-05T06:18:59;16.27;;;8.52;;
3627;SDS011;1830;49.000;12.074;2022-08-05T06:21:26;22.73;;;7.18;;
3627;SDS011;1830;49.000;12.074;2022-08-05T06:23:53;8.52;;;6.68;;
3627;SDS011;1830;49.000;12.074;2022-08-05T06:26:19;7.57;;;6.07;;
3627;SDS011;1830;49.000;12.074;2022-08-05T06:28:46;7.82;;;6.45;;
3627;SDS011;1830;49.000;12.074;2022-08-05T06:31:14;9.50;;;6.97;;
3627;SDS011;1830;49.000;12.074;2022-08-05T06:33:41;8.02;;;6.32;;
3627;SDS011;1830;49.000;12.074;2022-08-05T06:36:08;15.15;;;7.60;;
3627;SDS011;1830;49.000;12.074;2022-08-05T06:38:35;14.85;;;7.38;;
3627;SDS011;1830;49.000;12.074;2022-08-05T06:41:02;10.13;;;6.25;;
3627;SDS011;1830;49.000;12.074;2022-08-05T06:43:29;8.88;;;6.68;;
3627;SDS011;1830;49.000;12.074;2022-08-05T06:45:56;8.13;;;6.10;;
3627;SDS011;1830;49.000;12.074;2022-08-05T06:48:24;9.40;;;6.57;;
3627;SDS011;1830;49.000;12.074;2022-08-05T06:50:51;13.52;;;7.03;;
3627;SDS011;1830;49.000;12.074;2022-08-05T06:53:17;11.90;;;6.03;;
3627;SDS011;1830;49.000;12.074;2022-08-05T06:55:44;10.13;;;6.00;;
3627;SDS011;1830;49.000;12.074;2022-08-05T06:58:11;11.25;;;6.60;;
3627;SDS011;1830;49.000;12.074;2022-08-05T07:00:38;8.63;;;6.68;;
3627;SDS011;1830;49.000;12.074;2022-08-05T07:03:05;15.57;;;6.90;;
3627;SDS011;1830;49.000;12.074;2022-08-05T07:05:33;11.00;;;6.60;;
3627;SDS011;1830;49.000;12.074;2022-08-05T07:08:00;8.13;;;7.07;;
3627;SDS011;1830;49.000;12.074;2022-08-05T07:10:26;9.20;;;6.53;;
3627;SDS011;1830;49.000;12.074;2022-08-05T07:12:53;10.20;;;7.10;;
3627;SDS011;1830;49.000;12.074;2022-08-05T07:15:38;15.25;;;6.80;;
3627;SDS011;1830;49.000;12.074;2022-08-05T07:18:22;14.45;;;6.60;;
3627;SDS011;1830;49.000;12.074;2022-08-05T07:20:51;6.57;;;5.90;;
3627;SDS011;1830;49.000;12.074;2022-08-05T07:23:18;14.38;;;7.18;;
3627;SDS011;1830;49.000;12.074;2022-08-05T07:25:44;8.95;;;7.07;;
3627;SDS011;1830;49.000;12.074;2022-08-05T07:28:11;14.38;;;6.00;;
3627;SDS011;1830;49.000;12.074;2022-08-05T07:30:38;14.90;;;6.20;;
3627;SDS011;1830;49.000;12.074;2022-08-05T07:33:05;8.27;;;6.57;;
3627;SDS011;1830;49.000;12.074;2022-08-05T07:35:33;15.27;;;7.28;;
3627;SDS011;1830;49.000;12.074;2022-08-05T07:38:01;11.48;;;7.15;;
3627;SDS011;1830;49.000;12.074;2022-08-05T07:40:28;11.38;;;7.35;;
3627;SDS011;1830;49.000;12.074;2022-08-05T07:42:55;9.25;;;7.30;;
3627;SDS011;1830;49.000;12.074;2022-08-05T07:45:22;7.45;;;6.70;;
3627;SDS011;1830;49.000;12.074;2022-08-05T07:47:50;11.73;;;7.03;;
3627;SDS011;1830;49.000;12.074;2022-08-05T07:50:17;11.23;;;7.47;;
3627;SDS011;1830;49.000;12.074;2022-08-05T07:52:44;14.43;;;7.50;;
3627;SDS011;1830;49.000;12.074;2022-08-05T07:55:12;11.18;;;7.28;;
3627;SDS011;1830;49.000;12.074;2022-08-05T07:57:39;7.85;;;7.05;;
3627;SDS011;1830;49.000;12.074;2022-08-05T08:00:06;7.85;;;7.05;;
3627;SDS011;1830;49.000;12.074;2022-08-05T08:02:34;8.93;;;7.28;;
3627;SDS011;1830;49.000;12.074;2022-08-05T08:05:00;11.82;;;6.97;;
3627;SDS011;1830;49.000;12.074;2022-08-05T08:07:27;11.65;;;7.22;;
3627;SDS011;1830;49.000;12.074;2022-08-05T08:09:54;8.75;;;6.70;;
3627;SDS011;1830;49.000;12.074;2022-08-05T08:12:22;9.75;;;6.15;;
3627;SDS011;1830;49.000;12.074;2022-08-05T08:14:49;10.43;;;6.65;;
3627;SDS011;1830;49.000;12.074;2022-08-05T08:17:16;10.07;;;6.82;;
3627;SDS011;1830;49.000;12.074;2022-08-05T08:19:43;13.73;;;6.93;;
3627;SDS011;1830;49.000;12.074;2022-08-05T08:22:10;16.45;;;6.72;;
3627;SDS011;1830;49.000;12.074;2022-08-05T08:24:37;15.10;;;6.80;;
3627;SDS011;1830;49.000;12.074;2022-08-05T08:27:05;11.02;;;7.00;;
3627;SDS011;1830;49.000;12.074;2022-08-05T08:29:33;16.70;;;6.28;;
3627;SDS011;1830;49.000;12.074;2022-08-05T08:32:00;12.35;;;6.03;;
3627;SDS011;1830;49.000;12.074;2022-08-05T08:34:27;9.60;;;5.90;;
3627;SDS011;1830;49.000;12.074;2022-08-05T08:36:54;15.55;;;5.70;;
3627;SDS011;1830;49.000;12.074;2022-08-05T08:39:21;8.57;;;5.53;;
3627;SDS011;1830;49.000;12.074;2022-08-05T08:41:49;10.10;;;5.45;;
3627;SDS011;1830;49.000;12.074;2022-08-05T08:44:18;10.25;;;5.65;;
3627;SDS011;1830;49.000;12.074;2022-08-05T08:46:47;13.52;;;5.60;;
3627;SDS011;1830;49.000;12.074;2022-08-05T08:49:15;6.35;;;5.05;;
3627;SDS011;1830;49.000;12.074;2022-08-05T08:51:46;12.82;;;5.13;;
3627;SDS011;1830;49.000;12.074;2022-08-05T08:54:14;13.77;;;4.95;;
3627;SDS011;1830;49.000;12.074;2022-08-05T08:56:41;15.38;;;5.18;;
3627;SDS011;1830;49.000;12.074;2022-08-05T08:59:08;14.73;;;5.25;;
3627;SDS011;1830;49.000;12.074;2022-08-05T09:01:36;12.20;;;4.68;;
3627;SDS011;1830;49.000;12.074;2022-08-05T09:04:05;11.35;;;5.25;;
3627;SDS011;1830;49.000;12.074;2022-08-05T09:06:32;7.95;;;5.32;;
3627;SDS011;1830;49.000;12.074;2022-08-05T09:09:00;9.95;;;5.03;;
3627;SDS011;1830;49.000;12.074;2022-08-05T09:11:27;11.82;;;5.07;;
3627;SDS011;1830;49.000;12.074;2022-08-05T09:13:54;11.25;;;4.90;;
3627;SDS011;1830;49.000;12.074;2022-08-05T09:16:21;6.38;;;4.78;;
3627;SDS011;1830;49.000;12.074;2022-08-05T09:18:48;9.38;;;5.07;;
3627;SDS011;1830;49.000;12.074;2022-08-05T09:21:17;7.07;;;5.50;;
3627;SDS011;1830;49.000;12.074;2022-08-05T09:23:46;8.98;;;5.10;;
3627;SDS011;1830;49.000;12.074;2022-08-05T09:26:26;9.38;;;5.10;;
3627;SDS011;1830;49.000;12.074;2022-08-05T09:28:54;14.60;;;5.70;;
3627;SDS011;1830;49.000;12.074;2022-08-05T09:31:25;10.18;;;5.65;;
3627;SDS011;1830;49.000;12.074;2022-08-05T09:33:53;15.40;;;5.80;;
3627;SDS011;1830;49.000;12.074;2022-08-05T09:36:22;7.55;;;6.05;;
3627;SDS011;1830;49.000;12.074;2022-08-05T09:38:55;12.40;;;5.88;;
3627;SDS011;1830;49.000;12.074;2022-08-05T09:41:23;9.18;;;5.50;;
3627;SDS011;1830;49.000;12.074;2022-08-05T09:43:51;10.38;;;5.25;;
3627;SDS011;1830;49.000;12.074;2022-08-05T09:46:25;10.82;;;5.63;;
3627;SDS011;1830;49.000;12.074;2022-08-05T09:48:53;9.63;;;5.28;;
3627;SDS011;1830;49.000;12.074;2022-08-05T09:51:32;13.73;;;5.72;;
3627;SDS011;1830;49.000;12.074;2022-08-05T09:53:59;10.77;;;5.57;;
3627;SDS011;1830;49.000;12.074;2022-08-05T09:56:29;17.95;;;5.50;;
3627;SDS011;1830;49.000;12.074;2022-08-05T09:58:57;17.27;;;5.65;;
3627;SDS011;1830;49.000;12.074;2022-08-05T10:01:26;10.57;;;5.55;;
3627;SDS011;1830;49.000;12.074;2022-08-05T10:03:53;8.75;;;5.63;;
3627;SDS011;1830;49.000;12.074;2022-08-05T10:06:23;20.52;;;5.60;;
3627;SDS011;1830;49.000;12.074;2022-08-05T10:08:52;7.07;;;5.72;;
3627;SDS011;1830;49.000;12.074;2022-08-05T10:11:20;18.65;;;5.22;;
3627;SDS011;1830;49.000;12.074;2022-08-05T10:13:46;8.93;;;5.80;;
3627;SDS011;1830;49.000;12.074;2022-08-05T10:16:30;8.60;;;4.97;;
3627;SDS011;1830;49.000;12.074;2022-08-05T10:18:58;7.90;;;4.97;;
3627;SDS011;1830;49.000;12.074;2022-08-05T10:21:25;5.50;;;4.70;;
3627;SDS011;1830;49.000;12.074;2022-08-05T10:23:55;7.97;;;4.40;;
3627;SDS011;1830;49.000;12.074;2022-08-05T10:26:21;10.80;;;4.60;;
3627;SDS011;1830;49.000;12.074;2022-08-05T10:28:48;6.82;;;5.40;;
3627;SDS011;1830;49.000;12.074;2022-08-05T10:31:16;12.02;;;5.18;;
3627;SDS011;1830;49.000;12.074;2022-08-05T10:33:43;10.88;;;4.65;;
3627;SDS011;1830;49.000;12.074;2022-08-05T10:36:09;7.13;;;4.22;;
3627;SDS011;1830;49.000;12.074;2022-08-05T10:38:36;21.25;;;3.92;;
3627;SDS011;1830;49.000;12.074;2022-08-05T10:41:09;4.65;;;3.90;;
3627;SDS011;1830;49.000;12.074;2022-08-05T10:43:45;7.85;;;4.18;;
3627;SDS011;1830;49.000;12.074;2022-08-05T10:46:16;6.97;;;3.90;;
3627;SDS011;1830;49.000;12.074;2022-08-05T10:48:46;8.38;;;3.97;;
3627;SDS011;1830;49.000;12.074;2022-08-05T10:51:14;7.35;;;4.07;;
3627;SDS011;1830;49.000;12.074;2022-08-05T10:53:44;7.90;;;3.80;;
3627;SDS011;1830;49.000;12.074;2022-08-05T10:56:20;8.13;;;3.92;;
3627;SDS011;1830;49.000;12.074;2022-08-05T10:59:01;9.43;;;3.75;;
3627;SDS011;1830;49.000;12.074;2022-08-05T11:01:31;8.68;;;3.58;;
3627;SDS011;1830;49.000;12.074;2022-08-05T11:03:59;7.85;;;3.90;;
3627;SDS011;1830;49.000;12.074;2022-08-05T11:06:28;6.95;;;3.70;;
3627;SDS011;1830;49.000;12.074;2022-08-05T11:09:11;6.20;;;3.08;;
3627;SDS011;1830;49.000;12.074;2022-08-05T11:11:41;16.63;;;3.70;;
3627;SDS011;1830;49.000;12.074;2022-08-05T11:14:09;8.82;;;3.55;;
3627;SDS011;1830;49.000;12.074;2022-08-05T11:16:37;4.97;;;2.92;;
3627;SDS011;1830;49.000;12.074;2022-08-05T11:21:50;6.93;;;2.95;;
3627;SDS011;1830;49.000;12.074;2022-08-05T11:24:31;11.70;;;3.83;;
3627;SDS011;1830;49.000;12.074;2022-08-05T11:30:12;15.25;;;3.20;;
3627;SDS011;1830;49.000;12.074;2022-08-05T11:32:40;8.60;;;2.90;;
3627;SDS011;1830;49.000;12.074;2022-08-05T11:35:07;5.85;;;2.85;;
3627;SDS011;1830;49.000;12.074;2022-08-05T11:41:12;5.35;;;3.22;;
3627;SDS011;1830;49.000;12.074;2022-08-05T11:43:43;9.85;;;3.97;;
3627;SDS011;1830;49.000;12.074;2022-08-05T11:46:17;8.52;;;3.33;;
3627;SDS011;1830;49.000;12.074;2022-08-05T11:48:50;3.53;;;3.00;;
3627;SDS011;1830;49.000;12.074;2022-08-05T11:51:17;6.03;;;3.50;;
3627;SDS011;1830;49.000;12.074;2022-08-05T11:53:44;4.72;;;3.25;;
3627;SDS011;1830;49.000;12.074;2022-08-05T11:56:11;6.78;;;2.92;;
3627;SDS011;1830;49.000;12.074;2022-08-05T11:58:39;6.82;;;2.80;;
3627;SDS011;1830;49.000;12.074;2022-08-05T12:01:09;3.85;;;2.90;;
3627;SDS011;1830;49.000;12.074;2022-08-05T12:03:47;5.18;;;2.95;;
3627;SDS011;1830;49.000;12.074;2022-08-05T12:06:17;9.88;;;3.47;;
3627;SDS011;1830;49.000;12.074;2022-08-05T12:08:47;7.82;;;3.13;;
3627;SDS011;1830;49.000;12.074;2022-08-05T12:11:16;9.77;;;3.38;;
3627;SDS011;1830;49.000;12.074;2022-08-05T12:13:53;9.15;;;3.30;;
3627;SDS011;1830;49.000;12.074;2022-08-05T12:16:23;4.70;;;3.60;;
3627;SDS011;1830;49.000;12.074;2022-08-05T12:18:50;5.25;;;2.92;;
3627;SDS011;1830;49.000;12.074;2022-08-05T12:21:18;7.60;;;3.42;;
3627;SDS011;1830;49.000;12.074;2022-08-05T12:23:50;4.55;;;3.17;;
3627;SDS011;1830;49.000;12.074;2022-08-05T12:26:18;7.28;;;2.70;;
3627;SDS011;1830;49.000;12.074;2022-08-05T12:28:45;16.60;;;2.90;;
3627;SDS011;1830;49.000;12.074;2022-08-05T12:31:12;9.43;;;3.17;;
3627;SDS011;1830;49.000;12.074;2022-08-05T12:33:41;3.78;;;2.63;;
3627;SDS011;1830;49.000;12.074;2022-08-05T12:36:08;5.22;;;3.17;;
3627;SDS011;1830;49.000;12.074;2022-08-05T12:38:36;4.97;;;3.35;;
3627;SDS011;1830;49.000;12.074;2022-08-05T12:41:05;4.57;;;2.75;;
3627;SDS011;1830;49.000;12.074;2022-08-05T12:43:33;5.32;;;3.10;;
3627;SDS011;1830;49.000;12.074;2022-08-05T12:46:00;5.00;;;3.05;;
3627;SDS011;1830;49.000;12.074;2022-08-05T12:48:26;4.20;;;3.00;;
3627;SDS011;1830;49.000;12.074;2022-08-05T12:51:10;5.45;;;3.03;;
3627;SDS011;1830;49.000;12.074;2022-08-05T12:53:41;10.50;;;3.30;;
3627;SDS011;1830;49.000;12.074;2022-08-05T12:56:16;5.30;;;2.80;;
3627;SDS011;1830;49.000;12.074;2022-08-05T12:58:44;8.77;;;3.22;;
3627;SDS011;1830;49.000;12.074;2022-08-05T13:01:14;6.38;;;2.75;;
3627;SDS011;1830;49.000;12.074;2022-08-05T13:03:40;6.50;;;2.90;;
3627;SDS011;1830;49.000;12.074;2022-08-05T13:06:07;5.18;;;2.47;;
3627;SDS011;1830;49.000;12.074;2022-08-05T13:08:39;6.03;;;2.63;;
3627;SDS011;1830;49.000;12.074;2022-08-05T13:11:07;10.95;;;3.30;;
3627;SDS011;1830;49.000;12.074;2022-08-05T13:13:36;5.63;;;2.70;;
3627;SDS011;1830;49.000;12.074;2022-08-05T13:16:10;4.05;;;2.85;;
3627;SDS011;1830;49.000;12.074;2022-08-05T13:18:38;6.60;;;3.08;;
3627;SDS011;1830;49.000;12.074;2022-08-05T13:21:18;4.55;;;3.15;;
3627;SDS011;1830;49.000;12.074;2022-08-05T13:23:45;4.50;;;2.55;;
3627;SDS011;1830;49.000;12.074;2022-08-05T13:26:12;16.27;;;2.90;;
3627;SDS011;1830;49.000;12.074;2022-08-05T13:28:39;7.15;;;2.95;;
3627;SDS011;1830;49.000;12.074;2022-08-05T13:31:05;4.53;;;2.85;;
3627;SDS011;1830;49.000;12.074;2022-08-05T13:33:32;8.73;;;3.17;;
3627;SDS011;1830;49.000;12.074;2022-08-05T13:35:59;5.00;;;3.15;;
3627;SDS011;1830;49.000;12.074;2022-08-05T13:38:27;6.82;;;2.80;;
3627;SDS011;1830;49.000;12.074;2022-08-05T13:40:53;10.60;;;2.72;;
3627;SDS011;1830;49.000;12.074;2022-08-05T13:43:20;4.97;;;3.20;;
3627;SDS011;1830;49.000;12.074;2022-08-05T13:45:47;10.60;;;3.72;;
3627;SDS011;1830;49.000;12.074;2022-08-05T13:48:14;4.57;;;2.92;;
3627;SDS011;1830;49.000;12.074;2022-08-05T13:50:40;7.07;;;2.75;;
3627;SDS011;1830;49.000;12.074;2022-08-05T13:53:07;5.55;;;2.92;;
3627;SDS011;1830;49.000;12.074;2022-08-05T13:55:35;6.25;;;2.90;;
3627;SDS011;1830;49.000;12.074;2022-08-05T13:58:08;4.85;;;2.90;;
3627;SDS011;1830;49.000;12.074;2022-08-05T14:00:34;6.05;;;3.00;;
3627;SDS011;1830;49.000;12.074;2022-08-05T14:03:01;4.18;;;2.70;;
3627;SDS011;1830;49.000;12.074;2022-08-05T14:05:30;5.43;;;2.45;;
3627;SDS011;1830;49.000;12.074;2022-08-05T14:07:57;9.60;;;2.88;;
3627;SDS011;1830;49.000;12.074;2022-08-05T14:10:23;10.02;;;2.72;;
3627;SDS011;1830;49.000;12.074;2022-08-05T14:12:51;4.53;;;2.85;;
3627;SDS011;1830;49.000;12.074;2022-08-05T14:15:18;6.25;;;2.90;;
3627;SDS011;1830;49.000;12.074;2022-08-05T14:17:45;7.82;;;3.22;;
3627;SDS011;1830;49.000;12.074;2022-08-05T14:20:12;7.88;;;3.00;;
3627;SDS011;1830;49.000;12.074;2022-08-05T14:22:39;10.35;;;3.10;;
3627;SDS011;1830;49.000;12.074;2022-08-05T14:25:07;4.32;;;2.70;;
3627;SDS011;1830;49.000;12.074;2022-08-05T14:27:35;3.30;;;2.50;;
3627;SDS011;1830;49.000;12.074;2022-08-05T14:30:03;3.13;;;2.67;;
3627;SDS011;1830;49.000;12.074;2022-08-05T14:32:31;4.82;;;2.42;;
3627;SDS011;1830;49.000;12.074;2022-08-05T14:34:57;3.97;;;2.42;;
3627;SDS011;1830;49.000;12.074;2022-08-05T14:37:24;5.50;;;2.67;;
3627;SDS011;1830;49.000;12.074;2022-08-05T14:39:51;5.53;;;2.63;;
3627;SDS011;1830;49.000;12.074;2022-08-05T14:42:18;14.95;;;2.90;;
3627;SDS011;1830;49.000;12.074;2022-08-05T14:44:46;3.30;;;2.40;;
3627;SDS011;1830;49.000;12.074;2022-08-05T14:47:16;6.85;;;2.45;;
3627;SDS011;1830;49.000;12.074;2022-08-05T14:49:43;4.43;;;2.35;;
3627;SDS011;1830;49.000;12.074;2022-08-05T14:52:10;3.70;;;2.92;;
3627;SDS011;1830;49.000;12.074;2022-08-05T14:54:36;4.22;;;2.40;;
3627;SDS011;1830;49.000;12.074;2022-08-05T14:57:03;4.88;;;2.95;;
3627;SDS011;1830;49.000;12.074;2022-08-05T14:59:30;5.38;;;2.17;;
3627;SDS011;1830;49.000;12.074;2022-08-05T15:01:57;5.15;;;2.47;;
3627;SDS011;1830;49.000;12.074;2022-08-05T15:04:26;4.22;;;2.67;;
3627;SDS011;1830;49.000;12.074;2022-08-05T15:06:53;3.83;;;2.38;;
3627;SDS011;1830;49.000;12.074;2022-08-05T15:09:20;4.00;;;2.63;;
3627;SDS011;1830;49.000;12.074;2022-08-05T15:11:47;10.00;;;2.88;;
3627;SDS011;1830;49.000;12.074;2022-08-05T15:14:14;4.22;;;3.42;;